createdAt,value
2023-05-10T00:01:24.206Z,14.80
2023-05-10T00:03:56.738Z,13.40
2023-05-10T00:06:27.849Z,15.20
2023-05-10T00:09:01.228Z,14.40
2023-05-10T00:11:32.348Z,14.80
2023-05-10T00:14:06.255Z,11.60
2023-05-10T00:16:37.072Z,15.10
2023-05-10T00:19:11.919Z,12.40
2023-05-10T00:21:43.269Z,13.80
2023-05-10T00:24:13.686Z,14.60
2023-05-10T00:26:45.011Z,15.10
2023-05-10T00:29:20.848Z,16.20
2023-05-10T00:31:51.479Z,15.80
2023-05-10T00:34:23.843Z,18.50
2023-05-10T00:36:56.320Z,16.60
2023-05-10T00:39:32.851Z,15.70
2023-05-10T00:42:03.832Z,14.50
2023-05-10T00:44:38.237Z,16.60
2023-05-10T00:47:10.716Z,18.40
2023-05-10T00:49:45.253Z,11.70
2023-05-10T00:52:17.618Z,12.30
2023-05-10T00:54:49.161Z,14.90
2023-05-10T00:57:26.834Z,14.10
2023-05-10T00:59:59.324Z,13.70
2023-05-10T01:02:30.073Z,11.60
2023-05-10T01:05:01.850Z,17.50
2023-05-10T01:07:34.879Z,12.20
2023-05-10T01:10:10.128Z,16.10
2023-05-10T01:12:47.281Z,16.60
2023-05-10T01:15:19.734Z,13.60
2023-05-10T01:17:50.733Z,18.30
2023-05-10T01:20:21.010Z,11.00
2023-05-10T01:26:25.812Z,14.80
2023-05-10T01:29:28.311Z,18.60
2023-05-10T01:32:01.799Z,12.30
2023-05-10T01:34:59.581Z,10.90
2023-05-10T01:38:03.476Z,9.50
2023-05-10T01:41:08.615Z,9.70
2023-05-10T01:44:21.403Z,12.10
2023-05-10T01:47:06.607Z,10.10
2023-05-10T01:49:55.143Z,10.10
2023-05-10T01:52:46.240Z,8.90
2023-05-10T01:55:21.774Z,8.80
2023-05-10T01:58:04.815Z,10.70
2023-05-10T02:00:36.799Z,8.70
2023-05-10T02:03:12.942Z,7.10
2023-05-10T02:05:46.325Z,10.60
2023-05-10T02:08:22.570Z,9.30
2023-05-10T02:10:58.130Z,7.20
2023-05-10T02:13:31.521Z,9.10
2023-05-10T02:16:07.119Z,7.10
2023-05-10T02:18:39.895Z,7.90
2023-05-10T02:21:18.776Z,10.40
2023-05-10T02:23:56.882Z,8.50
2023-05-10T02:26:30.791Z,6.80
2023-05-10T02:29:05.731Z,6.80
2023-05-10T02:31:40.179Z,7.20
2023-05-10T02:34:13.859Z,13.10
2023-05-10T02:36:45.727Z,12.40
2023-05-10T02:39:20.837Z,9.50
2023-05-10T02:41:53.723Z,8.90
2023-05-10T02:44:25.402Z,10.80
2023-05-10T02:46:57.342Z,9.00
2023-05-10T02:49:27.882Z,18.50
2023-05-10T02:52:07.308Z,7.50
2023-05-10T02:54:48.802Z,8.10
2023-05-10T02:57:35.947Z,10.50
2023-05-10T03:00:08.301Z,8.20
2023-05-10T03:02:39.447Z,8.50
2023-05-10T03:05:10.982Z,9.10
2023-05-10T03:07:47.791Z,8.20
2023-05-10T03:12:59.375Z,8.80
2023-05-10T03:15:44.010Z,11.30
2023-05-10T03:18:24.821Z,13.70
2023-05-10T03:21:06.995Z,7.60
2023-05-10T03:23:55.447Z,8.40
2023-05-10T03:26:29.636Z,9.30
2023-05-10T03:29:16.708Z,8.30
2023-05-10T03:31:49.074Z,14.40
2023-05-10T03:34:26.442Z,14.60
2023-05-10T03:36:59.213Z,12.10
2023-05-10T03:39:29.748Z,18.90
2023-05-10T03:44:32.644Z,11.20
2023-05-10T03:47:03.082Z,12.70
2023-05-10T03:49:34.116Z,10.10
2023-05-10T03:52:07.609Z,13.20
2023-05-10T03:54:39.354Z,13.50
2023-05-10T03:57:15.320Z,10.80
2023-05-10T03:59:46.988Z,11.70
2023-05-10T04:02:19.498Z,10.10
2023-05-10T04:05:04.033Z,9.60
2023-05-10T04:07:34.141Z,9.50
2023-05-10T04:10:07.214Z,6.40
2023-05-10T04:12:37.327Z,11.90
2023-05-10T04:15:08.161Z,9.10
2023-05-10T04:17:39.178Z,8.70
2023-05-10T04:20:12.313Z,10.70
2023-05-10T04:22:42.828Z,13.40
2023-05-10T04:25:13.876Z,17.30
2023-05-10T04:27:44.280Z,10.30
2023-05-10T04:30:14.964Z,11.00
2023-05-10T04:32:45.267Z,19.10
2023-05-10T04:35:16.293Z,11.20
2023-05-10T04:37:46.509Z,9.90
2023-05-10T04:40:16.988Z,9.70
2023-05-10T04:42:47.861Z,7.90
2023-05-10T04:45:18.419Z,11.40
2023-05-10T04:47:48.537Z,11.10
2023-05-10T04:50:18.965Z,8.40
2023-05-10T04:52:48.960Z,8.30
2023-05-10T04:55:19.059Z,12.00
2023-05-10T04:57:49.084Z,7.90
2023-05-10T05:00:19.530Z,8.80
2023-05-10T05:02:49.528Z,10.20
2023-05-10T05:05:19.982Z,10.30
2023-05-10T05:07:50.293Z,8.10
2023-05-10T05:10:20.743Z,8.30
2023-05-10T05:12:50.945Z,8.70
2023-05-10T05:15:21.579Z,9.30
2023-05-10T05:17:51.367Z,12.10
2023-05-10T05:20:21.881Z,6.60
2023-05-10T05:22:52.216Z,8.00
2023-05-10T05:25:22.848Z,9.00
2023-05-10T05:27:55.834Z,7.80
2023-05-10T05:30:26.064Z,9.40
2023-05-10T05:32:56.337Z,21.40
2023-05-10T05:35:26.813Z,8.60
2023-05-10T05:37:57.444Z,11.50
2023-05-10T05:40:27.653Z,7.70
2023-05-10T05:42:58.083Z,6.70
2023-05-10T05:45:30.681Z,6.10
2023-05-10T05:48:02.273Z,5.70
2023-05-10T05:50:34.811Z,12.30
2023-05-10T05:53:05.315Z,10.60
2023-05-10T05:55:35.650Z,8.20
2023-05-10T05:58:06.491Z,10.10
2023-05-10T06:00:36.705Z,7.70
2023-05-10T06:03:08.992Z,9.90
2023-05-10T06:05:39.906Z,8.90
2023-05-10T06:08:10.027Z,7.70
2023-05-10T06:10:40.159Z,9.40
2023-05-10T06:13:11.411Z,8.70
2023-05-10T06:15:41.625Z,6.80
2023-05-10T06:18:11.754Z,7.80
2023-05-10T06:20:45.126Z,6.60
2023-05-10T06:23:15.265Z,9.10
2023-05-10T06:25:45.566Z,10.60
2023-05-10T06:28:15.894Z,6.10
2023-05-10T06:30:48.667Z,8.80
2023-05-10T06:33:18.782Z,7.50
2023-05-10T06:35:48.800Z,9.80
2023-05-10T06:38:18.928Z,6.90
2023-05-10T06:40:49.055Z,4.50
2023-05-10T06:43:26.340Z,5.70
2023-05-10T06:46:02.008Z,7.90
2023-05-10T06:48:33.027Z,8.30
2023-05-10T06:51:03.145Z,6.90
2023-05-10T06:53:33.254Z,6.50
2023-05-10T06:56:04.751Z,7.00
2023-05-10T07:01:07.941Z,8.40
2023-05-10T07:03:38.655Z,10.00
2023-05-10T07:06:21.684Z,7.30
2023-05-10T07:09:00.498Z,7.10
2023-05-10T07:11:30.514Z,7.00
2023-05-10T07:14:01.044Z,8.00
2023-05-10T07:16:31.094Z,5.90
2023-05-10T07:19:01.276Z,8.60
2023-05-10T07:21:32.673Z,6.50
2023-05-10T07:24:03.153Z,5.40
2023-05-10T07:26:33.666Z,6.40
2023-05-10T07:29:04.000Z,10.70
2023-05-10T07:31:34.447Z,5.40
2023-05-10T07:34:04.763Z,11.00
2023-05-10T07:36:35.281Z,7.30
2023-05-10T07:39:06.423Z,4.80
2023-05-10T07:41:40.129Z,6.90
2023-05-10T07:44:10.548Z,5.10
2023-05-10T07:46:41.369Z,5.20
2023-05-10T07:49:11.831Z,4.70
2023-05-10T07:51:42.536Z,4.80
2023-05-10T07:54:14.403Z,7.40
2023-05-10T07:56:48.822Z,5.90
2023-05-10T07:59:19.367Z,5.70
2023-05-10T08:01:49.573Z,4.50
2023-05-10T08:04:20.158Z,7.70
2023-05-10T08:06:50.554Z,4.20
2023-05-10T08:09:25.359Z,7.80
2023-05-10T08:11:55.979Z,7.00
2023-05-10T08:14:26.926Z,8.60
2023-05-10T08:16:58.141Z,6.40
2023-05-10T08:19:29.496Z,6.30
2023-05-10T08:22:04.370Z,4.10
2023-05-10T08:24:41.243Z,5.90
2023-05-10T08:27:11.861Z,3.90
2023-05-10T08:29:50.141Z,4.90
2023-05-10T08:32:21.113Z,6.90
2023-05-10T08:34:57.776Z,10.70
2023-05-10T08:37:32.498Z,5.20
2023-05-10T08:40:02.842Z,3.30
2023-05-10T08:42:42.286Z,6.20
2023-05-10T08:45:13.284Z,30.20
2023-05-10T08:47:44.219Z,4.80
2023-05-10T08:50:16.832Z,5.60
2023-05-10T08:52:52.053Z,7.80
2023-05-10T08:55:25.658Z,4.00
2023-05-10T08:57:56.680Z,7.70
2023-05-10T09:00:30.487Z,7.40
2023-05-10T09:03:01.903Z,5.90
2023-05-10T09:05:32.691Z,4.00
2023-05-10T09:08:02.715Z,3.20
2023-05-10T09:10:34.087Z,6.90
2023-05-10T09:13:05.140Z,3.90
2023-05-10T09:15:36.428Z,3.30
2023-05-10T09:18:06.889Z,3.70
2023-05-10T09:20:37.187Z,5.10
2023-05-10T09:23:12.630Z,4.00
2023-05-10T09:25:45.587Z,2.70
2023-05-10T09:28:15.660Z,6.30
2023-05-10T09:30:55.008Z,6.80
2023-05-10T09:33:28.050Z,4.40
2023-05-10T09:36:09.994Z,8.80
2023-05-10T09:38:53.900Z,3.30
2023-05-10T09:41:25.189Z,4.50
2023-05-10T09:43:58.316Z,4.50
2023-05-10T09:46:33.002Z,4.20
2023-05-10T09:49:03.204Z,3.50
2023-05-10T09:51:35.629Z,4.90
2023-05-10T09:54:18.284Z,3.90
2023-05-10T09:56:48.401Z,7.90
2023-05-10T09:59:20.875Z,4.70
2023-05-10T10:01:57.979Z,5.60
2023-05-10T10:04:31.259Z,6.50
2023-05-10T10:07:05.482Z,4.20
2023-05-10T10:09:37.181Z,4.80
2023-05-10T10:12:07.704Z,4.00
2023-05-10T10:14:43.788Z,4.40
2023-05-10T10:17:14.681Z,4.50
2023-05-10T10:19:47.203Z,3.00
2023-05-10T10:22:21.388Z,5.40
2023-05-10T10:24:52.967Z,3.30
2023-05-10T10:28:10.452Z,4.60
2023-05-10T10:30:47.318Z,6.00
2023-05-10T10:33:55.296Z,5.20
2023-05-10T10:36:28.334Z,7.00
2023-05-10T10:39:09.089Z,2.80
2023-05-10T10:41:57.770Z,5.60
2023-05-10T10:44:32.051Z,4.50
2023-05-10T10:47:30.279Z,4.70
2023-05-10T10:50:03.633Z,8.30
2023-05-10T10:52:38.323Z,8.50
2023-05-10T10:55:25.003Z,5.30
2023-05-10T10:58:07.355Z,4.10
2023-05-10T11:00:39.257Z,6.50
2023-05-10T11:03:20.127Z,8.30
2023-05-10T11:05:53.281Z,6.10
2023-05-10T11:08:36.934Z,5.60
2023-05-10T11:11:10.617Z,6.40
2023-05-10T11:13:49.211Z,5.20
2023-05-10T11:16:43.194Z,4.90
2023-05-10T11:22:07.009Z,2.50
2023-05-10T11:24:37.571Z,3.60
2023-05-10T11:27:09.067Z,3.60
2023-05-10T11:29:39.990Z,3.60
2023-05-10T11:32:13.414Z,4.60
2023-05-10T11:34:49.105Z,6.00
2023-05-10T11:37:23.301Z,3.60
2023-05-10T11:39:56.931Z,3.10
2023-05-10T11:42:31.882Z,7.00
2023-05-10T11:45:07.496Z,5.30
2023-05-10T11:47:47.586Z,5.10
2023-05-10T11:50:25.277Z,6.40
2023-05-10T11:52:58.217Z,3.30
2023-05-10T11:55:31.774Z,6.10
2023-05-10T11:58:05.602Z,5.00
2023-05-10T12:00:36.495Z,6.40
2023-05-10T12:03:09.301Z,5.60
2023-05-10T12:05:41.567Z,4.60
2023-05-10T12:08:15.747Z,5.70
2023-05-10T12:10:46.472Z,4.70
2023-05-10T12:13:25.388Z,6.80
2023-05-10T12:16:02.034Z,10.00
2023-05-10T12:18:42.112Z,6.80
2023-05-10T12:21:16.553Z,3.70
2023-05-10T12:23:52.357Z,16.70
2023-05-10T12:26:30.885Z,3.40
2023-05-10T12:29:20.820Z,4.20
2023-05-10T12:32:02.570Z,12.70
2023-05-10T12:34:36.553Z,3.40
2023-05-10T12:37:07.543Z,6.00
2023-05-10T12:40:00.184Z,6.10
2023-05-10T12:42:36.865Z,6.60
2023-05-10T12:45:15.401Z,5.30
2023-05-10T12:47:45.722Z,5.20
2023-05-10T12:50:16.557Z,3.20
2023-05-10T12:52:47.317Z,3.60
2023-05-10T12:55:17.509Z,3.70
2023-05-10T12:57:47.995Z,4.60
2023-05-10T13:00:19.368Z,5.60
2023-05-10T13:02:49.663Z,5.10
2023-05-10T13:05:19.928Z,5.60
2023-05-10T13:07:51.345Z,7.50
2023-05-10T13:10:25.367Z,8.30
2023-05-10T13:13:00.288Z,5.20
2023-05-10T13:15:32.427Z,3.00
2023-05-10T13:18:05.969Z,3.20
2023-05-10T13:20:35.872Z,2.50
2023-05-10T13:23:06.114Z,3.30
2023-05-10T13:25:36.247Z,6.30
2023-05-10T13:28:06.366Z,4.30
2023-05-10T13:30:36.627Z,6.60
2023-05-10T13:33:07.085Z,3.00
2023-05-10T13:35:37.754Z,6.20
2023-05-10T13:38:09.347Z,4.60
2023-05-10T13:40:39.588Z,3.70
2023-05-10T13:43:09.315Z,5.60
2023-05-10T13:45:39.036Z,2.40
2023-05-10T13:48:08.973Z,6.00
2023-05-10T13:50:39.824Z,4.40
2023-05-10T13:53:09.719Z,5.80
2023-05-10T13:55:40.221Z,4.70
2023-05-10T13:58:12.264Z,5.30
2023-05-10T14:00:43.254Z,3.40
2023-05-10T14:03:16.557Z,3.30
2023-05-10T14:05:49.999Z,3.40
2023-05-10T14:08:24.042Z,4.00
2023-05-10T14:11:16.269Z,2.80
2023-05-10T14:13:47.736Z,3.70
2023-05-10T14:16:18.323Z,4.30
2023-05-10T14:18:49.149Z,4.00
2023-05-10T14:21:19.249Z,5.30
2023-05-10T14:23:49.273Z,6.90
2023-05-10T14:26:22.052Z,4.20
2023-05-10T14:28:52.913Z,5.10
2023-05-10T14:31:24.550Z,4.50
2023-05-10T14:36:30.127Z,5.70
2023-05-10T14:39:04.881Z,3.60
2023-05-10T14:41:35.168Z,3.80
2023-05-10T14:44:05.429Z,3.60
2023-05-10T14:46:36.406Z,4.40
2023-05-10T14:49:06.323Z,3.90
2023-05-10T14:51:37.851Z,4.60
2023-05-10T14:56:38.762Z,5.00
2023-05-10T14:59:10.178Z,3.20
2023-05-10T15:01:43.299Z,5.20
2023-05-10T15:04:14.998Z,3.30
2023-05-10T15:06:45.806Z,9.70
2023-05-10T15:09:17.865Z,3.10
2023-05-10T15:11:48.293Z,4.70
2023-05-10T15:14:18.840Z,3.80
2023-05-10T15:16:49.493Z,4.70
2023-05-10T15:19:19.779Z,3.50
2023-05-10T15:21:57.488Z,5.40
2023-05-10T15:24:29.028Z,6.80
2023-05-10T15:27:01.100Z,5.60
2023-05-10T15:29:33.684Z,8.30
2023-05-10T15:32:04.489Z,3.50
2023-05-10T15:34:39.681Z,8.20
2023-05-10T15:37:10.092Z,4.90
2023-05-10T15:39:41.217Z,4.30
2023-05-10T15:42:14.664Z,5.60
2023-05-10T15:44:46.110Z,3.90
2023-05-10T15:47:16.845Z,5.00
2023-05-10T15:49:52.967Z,4.40
2023-05-10T15:52:26.375Z,8.40
2023-05-10T15:54:57.217Z,5.30
2023-05-10T15:57:27.764Z,6.00
2023-05-10T16:00:04.280Z,4.60
2023-05-10T16:02:42.911Z,9.30
2023-05-10T16:05:24.535Z,2.90
2023-05-10T16:08:06.903Z,5.50
2023-05-10T16:10:38.826Z,5.20
2023-05-10T16:13:17.794Z,4.00
2023-05-10T16:15:50.374Z,6.40
2023-05-10T16:18:30.321Z,3.20
2023-05-10T16:21:27.731Z,6.80
2023-05-10T16:24:10.880Z,8.00
2023-05-10T16:26:43.139Z,4.10
2023-05-10T16:29:19.601Z,7.50
2023-05-10T16:31:57.131Z,5.70
2023-05-10T16:34:33.401Z,7.30
2023-05-10T16:37:14.541Z,6.60
2023-05-10T16:39:50.363Z,5.10
2023-05-10T16:42:21.476Z,4.10
2023-05-10T16:44:57.276Z,5.30
2023-05-10T16:47:28.197Z,6.50
2023-05-10T16:50:08.371Z,5.90
2023-05-10T16:52:48.439Z,5.90
2023-05-10T16:55:24.741Z,5.30
2023-05-10T16:58:01.316Z,9.00
2023-05-10T17:00:36.831Z,6.30
2023-05-10T17:03:27.001Z,5.40
2023-05-10T17:06:45.460Z,6.30
2023-05-10T17:09:16.273Z,7.40
2023-05-10T17:11:50.487Z,5.70
2023-05-10T17:14:23.086Z,11.10
2023-05-10T17:16:58.205Z,6.40
2023-05-10T17:19:32.079Z,7.90
2023-05-10T17:22:04.545Z,9.60
2023-05-10T17:24:35.567Z,6.20
2023-05-10T17:27:09.341Z,10.50
2023-05-10T17:29:45.028Z,9.40
2023-05-10T17:32:21.166Z,7.20
2023-05-10T17:34:53.547Z,6.20
2023-05-10T17:37:28.380Z,5.40
2023-05-10T17:40:14.570Z,6.70
2023-05-10T17:42:52.725Z,9.00
2023-05-10T17:45:31.054Z,12.10
2023-05-10T17:51:31.276Z,8.30
2023-05-10T17:54:19.882Z,6.20
2023-05-10T17:57:18.122Z,9.80
2023-05-10T17:59:54.080Z,8.10
2023-05-10T18:02:53.648Z,6.90
2023-05-10T18:05:28.353Z,5.80
2023-05-10T18:11:52.357Z,6.10
2023-05-10T18:14:40.646Z,7.30
2023-05-10T18:17:37.220Z,8.30
2023-05-10T18:20:20.425Z,7.80
2023-05-10T18:24:39.508Z,7.70
2023-05-10T18:27:26.701Z,9.50
2023-05-10T18:30:25.626Z,9.20
2023-05-10T19:04:06.569Z,13.10
2023-05-10T19:06:36.858Z,15.90
2023-05-10T19:09:09.437Z,12.70
2023-05-10T19:11:41.362Z,15.60
2023-05-10T19:14:10.348Z,15.20
2023-05-10T19:16:53.095Z,13.80
2023-05-10T19:19:24.686Z,14.00
2023-05-10T19:21:56.205Z,12.50
2023-05-10T19:24:26.982Z,17.90
2023-05-10T19:27:06.529Z,20.50
2023-05-10T19:29:45.281Z,21.60
2023-05-10T19:32:25.781Z,25.40
2023-05-10T19:34:58.285Z,14.90
2023-05-10T19:37:28.731Z,17.50
2023-05-10T19:40:40.716Z,16.30
2023-05-10T19:43:25.154Z,20.40
2023-05-10T19:46:02.988Z,21.00
2023-05-10T19:48:51.765Z,15.00
2023-05-10T19:51:52.258Z,11.20
2023-05-10T19:54:57.744Z,15.30
2023-05-10T19:58:33.660Z,13.10
2023-05-10T20:01:35.768Z,20.00
2023-05-10T20:04:13.451Z,17.50
2023-05-10T20:06:45.725Z,14.90
2023-05-10T20:09:30.658Z,17.20
2023-05-10T20:12:07.725Z,15.60
2023-05-10T20:14:52.443Z,15.60
2023-05-10T20:17:44.697Z,13.90
2023-05-10T20:20:50.093Z,13.10
2023-05-10T20:23:27.936Z,17.20
2023-05-10T20:25:58.044Z,18.80
2023-05-10T20:28:30.539Z,12.70
2023-05-10T20:31:12.618Z,12.00
2023-05-10T20:33:54.701Z,13.10
2023-05-10T20:37:29.145Z,15.80
2023-05-10T20:40:05.904Z,17.60
2023-05-10T20:42:59.600Z,14.20
2023-05-10T20:45:39.720Z,14.90
2023-05-10T20:48:25.296Z,13.00
2023-05-10T20:51:01.647Z,12.80
2023-05-10T20:53:41.196Z,13.30
2023-05-10T20:56:37.319Z,15.20
2023-05-10T20:59:26.274Z,11.20
2023-05-10T21:02:04.471Z,14.30
2023-05-10T21:04:53.333Z,19.00
2023-05-10T21:07:36.355Z,13.60
2023-05-10T21:10:25.273Z,11.90
2023-05-10T21:13:02.048Z,10.40
2023-05-10T21:15:42.718Z,12.40
2023-05-10T21:18:13.703Z,10.90
2023-05-10T21:20:59.536Z,11.40
2023-05-10T21:23:39.587Z,12.10
2023-05-10T21:29:29.191Z,10.20
2023-05-10T21:32:44.185Z,15.30
2023-05-10T21:35:27.250Z,16.90
2023-05-10T21:38:16.317Z,11.50
2023-05-10T21:41:13.598Z,14.60
2023-05-10T21:44:33.031Z,14.70
2023-05-10T21:47:53.606Z,15.00
2023-05-10T21:50:33.008Z,15.30
2023-05-10T21:55:51.572Z,15.00
2023-05-10T21:58:41.024Z,12.40
2023-05-10T22:01:28.527Z,14.60
2023-05-10T22:04:20.519Z,16.90
2023-05-10T22:07:25.737Z,13.40
2023-05-10T22:10:13.205Z,13.10
2023-05-10T22:12:56.619Z,12.50
2023-05-10T22:15:37.859Z,12.50
2023-05-10T22:18:25.145Z,9.10
2023-05-10T22:21:05.952Z,13.10
2023-05-10T22:23:51.024Z,9.10
2023-05-10T22:26:30.142Z,9.90
2023-05-10T22:29:18.727Z,9.90
2023-05-10T22:32:09.131Z,10.70
2023-05-10T22:35:15.854Z,9.70
2023-05-10T22:38:06.257Z,10.00
2023-05-10T22:40:55.977Z,8.90
2023-05-10T22:43:47.421Z,9.90
2023-05-10T22:46:37.686Z,15.20
2023-05-10T22:49:11.872Z,11.80
2023-05-10T22:51:47.103Z,14.30
2023-05-10T22:54:25.312Z,13.90
2023-05-10T22:57:06.060Z,10.50
2023-05-10T23:00:03.442Z,8.90
2023-05-10T23:02:47.947Z,11.70
2023-05-10T23:05:29.077Z,9.60
2023-05-10T23:08:11.786Z,11.50
2023-05-10T23:10:57.258Z,9.80
2023-05-10T23:13:31.262Z,12.20
2023-05-10T23:16:08.700Z,10.70
2023-05-10T23:18:46.868Z,11.60
2023-05-10T23:21:18.841Z,14.60
2023-05-10T23:23:48.205Z,14.80
2023-05-10T23:26:22.178Z,12.60
2023-05-10T23:28:59.205Z,12.60
2023-05-10T23:31:38.469Z,13.30
2023-05-10T23:34:27.910Z,9.60
2023-05-10T23:37:07.925Z,14.20
2023-05-10T23:39:52.499Z,13.00
2023-05-10T23:42:37.305Z,14.00
2023-05-10T23:45:26.799Z,20.10
2023-05-10T23:48:31.912Z,11.50
2023-05-10T23:51:17.862Z,16.50
2023-05-10T23:53:56.622Z,11.90
2023-05-10T23:56:42.101Z,13.90
2023-05-10T23:59:29.408Z,17.80
